Burns Municipal Airport
KBNO : rendu visible

Aérodrome :











RETROUVEZ-NOUS SUR...

 
LOGIN :

S'inscrire | Disclaimer

   EN    FR    IT 

 









Légende :    VFR   VFR Marginal   IFR   IFR Intensif   IFR Très Intensif
Visi : 
Plafond : 
>= 8 km
>= 3000ft
5 à 8 km
1000 à 3000 ft
1500m à 5 km
500 à 1000 ft
800 à 1500m
200 à 500 ft
< 800m
< 200 ft
Symboles :   Orages  Brouillard  Fortes neiges  Fortes précipitations  Vent > 20 kt







- Altitude de l'aérodrome : 4148 ft


KBNO - Burns Municipal

DERNIER METAR :
  • 151153Z AUTO 02005KT 10SM CLR 05/M01 A2992 RMK AO2 SLP102 T00501006 10139 20039 56007 $

METARs EXPIRÉS :
  • 151053Z AUTO 07006KT 10SM CLR 07/M01 A2993 RMK AO2 SLP104 T00671006 $
  • 150953Z AUTO 06005KT 10SM CLR 07/01 A2994 RMK AO2 SLP106 T00720006 $

TAF KBNO
Valide du 15 à 12h jusqu'au 16 à 12h UTC


151126Z 1512/1612 07006KT P6SM SKC
FM151800 19012G20KT P6SM SKC
FM160400 26012G20KT P6SM BKN200
Pas de NOTAMs connus pour ce terrain.



MET'MAP, la Météo Aéronautique d'un coup d'oeil ! - Copyright ORBIFLY Décembre 2007 - Disclaimer

ORBIFLY MET'MAP TEAM :

Programmation & Développement : Alexandra Zaïnal
Conception & Développement : Baudouin d'Aumeries
Co-Programmation & Développement : Marc-Olivier Méhu
Soutien technique & logistique : Manuel Goepfert

Contact : metmap@orbifly.com




SOURCES & CREDITS :

   NOAA       Earth
Advisory